createdAt,value
2023-02-11T00:00:20.052Z,17.00
2023-02-11T00:02:48.018Z,19.00
2023-02-11T00:05:15.156Z,19.17
2023-02-11T00:07:41.593Z,17.50
2023-02-11T00:10:08.769Z,17.80
2023-02-11T00:12:36.374Z,17.33
2023-02-11T00:15:03.620Z,16.10
2023-02-11T00:17:30.042Z,15.63
2023-02-11T00:19:56.520Z,16.90
2023-02-11T00:22:23.018Z,15.40
2023-02-11T00:24:49.457Z,15.40
2023-02-11T00:27:15.863Z,15.30
2023-02-11T00:29:42.332Z,14.10
2023-02-11T00:32:10.335Z,14.77
2023-02-11T00:34:38.088Z,15.20
2023-02-11T00:37:05.271Z,14.70
2023-02-11T00:39:32.131Z,16.63
2023-02-11T00:41:58.613Z,15.30
2023-02-11T00:44:26.010Z,14.90
2023-02-11T00:46:52.420Z,15.13
2023-02-11T00:49:18.945Z,15.77
2023-02-11T00:51:45.368Z,12.93
2023-02-11T00:54:12.293Z,16.10
2023-02-11T00:56:39.029Z,14.17
2023-02-11T00:59:05.527Z,16.07
2023-02-11T01:01:32.043Z,15.63
2023-02-11T01:03:58.518Z,15.00
2023-02-11T01:06:24.982Z,17.60
2023-02-11T01:08:51.558Z,16.17
2023-02-11T01:11:20.118Z,14.80
2023-02-11T01:13:48.153Z,14.87
2023-02-11T01:16:15.643Z,17.30
2023-02-11T01:18:44.199Z,15.43
2023-02-11T01:21:11.370Z,14.43
2023-02-11T01:23:37.846Z,14.03
2023-02-11T01:26:04.568Z,13.40
2023-02-11T01:28:31.734Z,14.83
2023-02-11T01:31:03.145Z,13.77
2023-02-11T01:33:29.808Z,15.60
2023-02-11T01:36:00.439Z,13.80
2023-02-11T01:38:28.330Z,13.63
2023-02-11T01:41:00.580Z,14.40
2023-02-11T01:43:34.212Z,13.80
2023-02-11T01:46:12.902Z,14.93
2023-02-11T01:48:43.537Z,13.60
2023-02-11T01:51:18.425Z,14.33
2023-02-11T01:54:06.155Z,15.10
2023-02-11T01:56:56.103Z,14.10
2023-02-11T01:59:26.943Z,13.57
2023-02-11T02:01:59.092Z,13.27
2023-02-11T02:04:31.775Z,15.53
2023-02-11T02:07:05.731Z,14.40
2023-02-11T02:09:40.085Z,14.53
2023-02-11T02:12:06.698Z,13.10
2023-02-11T02:14:33.555Z,12.73
2023-02-11T02:17:00.063Z,12.97
2023-02-11T02:19:50.704Z,12.13
2023-02-11T02:22:36.032Z,13.40
2023-02-11T02:25:13.589Z,14.87
2023-02-11T02:27:53.937Z,12.53
2023-02-11T02:30:27.439Z,11.80
2023-02-11T02:33:22.399Z,13.80
2023-02-11T02:35:52.298Z,12.97
2023-02-11T02:38:25.206Z,12.37
2023-02-11T02:41:03.859Z,12.47
2023-02-11T02:43:31.211Z,12.83
2023-02-11T02:46:11.293Z,13.20
2023-02-11T02:48:37.782Z,11.53
2023-02-11T02:51:23.014Z,12.53
2023-02-11T02:53:55.453Z,12.30
2023-02-11T02:56:28.426Z,12.73
2023-02-11T02:59:12.998Z,12.80
2023-02-11T03:01:56.149Z,12.20
2023-02-11T03:04:30.998Z,11.00
2023-02-11T03:07:00.353Z,11.83
2023-02-11T03:09:37.788Z,11.40
2023-02-11T03:12:06.915Z,12.20
2023-02-11T03:14:35.820Z,11.10
2023-02-11T03:17:06.013Z,10.67
2023-02-11T03:19:41.083Z,11.00
2023-02-11T03:22:17.220Z,10.50
2023-02-11T03:24:44.904Z,9.40
2023-02-11T03:27:43.702Z,9.93
2023-02-11T03:30:18.985Z,9.87
2023-02-11T03:32:57.326Z,10.50
2023-02-11T03:35:43.962Z,9.67
2023-02-11T03:38:33.739Z,8.43
2023-02-11T03:41:03.138Z,9.00
2023-02-11T03:43:44.057Z,9.53
2023-02-11T03:46:12.386Z,9.57
2023-02-11T03:48:46.937Z,9.30
2023-02-11T03:51:14.958Z,8.67
2023-02-11T03:53:44.846Z,9.03
2023-02-11T03:56:17.863Z,9.77
2023-02-11T03:58:45.827Z,8.93
2023-02-11T04:01:12.565Z,9.80
2023-02-11T04:03:39.068Z,10.00
2023-02-11T04:06:05.927Z,10.00
2023-02-11T04:08:32.877Z,10.30
2023-02-11T04:10:59.312Z,11.10
2023-02-11T04:13:26.113Z,8.60
2023-02-11T04:15:52.878Z,8.90
2023-02-11T04:18:19.560Z,7.50
2023-02-11T04:20:45.958Z,7.93
2023-02-11T04:23:12.469Z,7.60
2023-02-11T04:25:38.923Z,9.23
2023-02-11T04:28:05.490Z,9.77
2023-02-11T04:30:31.932Z,9.30
2023-02-11T04:32:59.024Z,8.93
2023-02-11T04:35:25.474Z,9.00
2023-02-11T04:37:51.944Z,9.50
2023-02-11T04:40:18.553Z,8.50
2023-02-11T04:42:45.008Z,9.30
2023-02-11T04:45:11.428Z,8.47
2023-02-11T04:47:38.034Z,8.73
2023-02-11T04:50:05.151Z,9.53
2023-02-11T04:52:31.575Z,8.90
2023-02-11T04:54:57.982Z,8.47
2023-02-11T04:57:24.523Z,8.07
2023-02-11T04:59:50.932Z,8.13
2023-02-11T05:02:17.456Z,9.40
2023-02-11T05:04:43.856Z,9.70
2023-02-11T05:07:10.271Z,8.67
2023-02-11T05:09:36.845Z,8.53
2023-02-11T05:12:03.431Z,8.17
2023-02-11T05:14:29.858Z,9.43
2023-02-11T05:16:56.363Z,9.17
2023-02-11T05:19:22.819Z,9.37
2023-02-11T05:22:01.686Z,8.73
2023-02-11T05:24:28.396Z,9.53
2023-02-11T05:26:54.792Z,9.40
2023-02-11T05:29:21.202Z,9.07
2023-02-11T05:31:47.623Z,9.67
2023-02-11T05:34:14.111Z,8.80
2023-02-11T05:36:40.951Z,9.20
2023-02-11T05:39:07.383Z,8.97
2023-02-11T05:41:33.795Z,8.80
2023-02-11T05:44:00.207Z,8.00
2023-02-11T05:46:26.815Z,9.23
2023-02-11T05:48:53.314Z,9.30
2023-02-11T05:51:19.748Z,9.30
2023-02-11T05:53:46.176Z,9.20
2023-02-11T05:56:14.477Z,7.40
2023-02-11T05:58:41.080Z,9.10
2023-02-11T06:01:07.498Z,7.60
2023-02-11T06:03:34.040Z,7.90
2023-02-11T06:06:00.626Z,7.73
2023-02-11T06:08:27.185Z,8.87
2023-02-11T06:10:53.599Z,8.13
2023-02-11T06:13:20.075Z,9.83
2023-02-11T06:15:56.380Z,7.30
2023-02-11T06:18:22.890Z,7.13
2023-02-11T06:20:49.315Z,7.17
2023-02-11T06:23:15.771Z,8.50
2023-02-11T06:25:42.179Z,8.10
2023-02-11T06:28:10.347Z,8.27
2023-02-11T06:30:38.063Z,7.40
2023-02-11T06:33:04.992Z,8.40
2023-02-11T06:35:33.362Z,7.27
2023-02-11T06:37:59.790Z,6.43
2023-02-11T06:40:26.250Z,6.70
2023-02-11T06:42:53.026Z,7.60
2023-02-11T06:45:20.542Z,6.57
2023-02-11T06:47:47.050Z,7.13
2023-02-11T06:50:14.566Z,7.23
2023-02-11T06:52:41.107Z,6.93
2023-02-11T06:55:07.732Z,6.90
2023-02-11T06:57:34.168Z,7.27
2023-02-11T07:00:00.694Z,7.73
2023-02-11T07:02:27.134Z,8.60
2023-02-11T07:04:53.713Z,6.43
2023-02-11T07:07:20.156Z,6.47
2023-02-11T07:09:46.577Z,7.70
2023-02-11T07:12:15.940Z,7.20
2023-02-11T07:14:42.774Z,7.23
2023-02-11T07:17:09.348Z,7.73
2023-02-11T07:19:35.810Z,8.80
2023-02-11T07:22:02.216Z,7.87
2023-02-11T07:24:28.990Z,7.30
2023-02-11T07:26:55.480Z,6.23
2023-02-11T07:29:21.932Z,7.20
2023-02-11T07:31:48.975Z,6.47
2023-02-11T07:34:15.538Z,6.60
2023-02-11T07:36:44.006Z,6.90
2023-02-11T07:39:10.812Z,5.13
2023-02-11T07:41:38.374Z,5.90
2023-02-11T07:44:05.626Z,6.00
2023-02-11T07:46:32.389Z,6.33
2023-02-11T07:48:58.876Z,11.37
2023-02-11T07:51:29.113Z,12.20
2023-02-11T07:53:58.750Z,12.60
2023-02-11T07:56:25.632Z,9.60
2023-02-11T07:58:52.163Z,7.50
2023-02-11T08:01:25.371Z,6.43
2023-02-11T08:03:52.096Z,6.60
2023-02-11T08:06:20.443Z,5.60
2023-02-11T08:08:47.647Z,5.53
2023-02-11T08:11:23.466Z,6.60
2023-02-11T08:13:51.260Z,6.47
2023-02-11T08:16:29.831Z,6.07
2023-02-11T08:18:58.687Z,7.07
2023-02-11T08:21:25.947Z,5.77
2023-02-11T08:23:53.192Z,7.90
2023-02-11T08:26:22.191Z,6.10
2023-02-11T08:28:50.287Z,7.03
2023-02-11T08:31:22.693Z,7.33
2023-02-11T08:33:49.311Z,8.43
2023-02-11T08:36:19.114Z,7.50
2023-02-11T08:38:45.659Z,8.30
2023-02-11T08:41:14.901Z,9.40
2023-02-11T08:43:42.776Z,10.00
2023-02-11T08:46:13.289Z,9.20
2023-02-11T08:48:40.007Z,8.60
2023-02-11T08:51:13.443Z,7.20
2023-02-11T08:53:40.188Z,7.40
2023-02-11T08:56:06.833Z,8.17
2023-02-11T08:58:33.593Z,7.57
2023-02-11T09:01:00.225Z,6.90
2023-02-11T09:03:26.865Z,8.57
2023-02-11T09:05:53.419Z,9.13
2023-02-11T09:08:20.894Z,9.40
2023-02-11T09:10:47.678Z,7.97
2023-02-11T09:13:16.316Z,9.77
2023-02-11T09:15:46.750Z,8.60
2023-02-11T09:18:13.404Z,8.50
2023-02-11T09:20:39.931Z,8.27
2023-02-11T09:23:06.349Z,9.30
2023-02-11T09:25:32.819Z,8.90
2023-02-11T09:27:59.236Z,10.43
2023-02-11T09:30:25.754Z,9.00
2023-02-11T09:32:52.189Z,8.70
2023-02-11T09:35:18.654Z,9.40
2023-02-11T09:37:45.086Z,8.57
2023-02-11T09:40:12.955Z,8.70
2023-02-11T09:42:52.979Z,9.77
2023-02-11T09:45:23.726Z,9.80
2023-02-11T09:47:55.479Z,8.67
2023-02-11T09:50:38.936Z,10.30
2023-02-11T09:53:27.547Z,11.37
2023-02-11T09:55:56.422Z,10.10
2023-02-11T09:58:33.287Z,10.73
2023-02-11T10:01:27.744Z,11.23
2023-02-11T10:04:38.747Z,11.67
2023-02-11T10:07:43.060Z,10.73
2023-02-11T10:10:43.986Z,10.67
2023-02-11T10:13:23.047Z,11.03
2023-02-11T10:16:16.458Z,10.17
2023-02-11T10:19:05.229Z,10.97
2023-02-11T10:21:46.665Z,11.07
2023-02-11T10:24:15.673Z,11.77
2023-02-11T10:26:43.941Z,11.13
2023-02-11T10:29:50.462Z,9.97
2023-02-11T10:32:55.300Z,9.80
2023-02-11T10:35:23.454Z,11.77
2023-02-11T10:37:50.748Z,10.90
2023-02-11T10:40:21.299Z,11.57
2023-02-11T10:42:54.276Z,10.57
2023-02-11T10:45:27.504Z,10.03
2023-02-11T10:47:55.265Z,11.10
2023-02-11T10:50:33.340Z,10.47
2023-02-11T10:53:11.461Z,10.40
2023-02-11T10:55:37.996Z,10.83
2023-02-11T10:58:05.667Z,9.73
2023-02-11T11:00:42.919Z,9.73
2023-02-11T11:03:20.959Z,9.93
2023-02-11T11:05:57.232Z,9.73
2023-02-11T11:08:46.180Z,9.33
2023-02-11T11:11:24.068Z,9.30
2023-02-11T11:13:53.515Z,8.40
2023-02-11T11:16:26.187Z,10.10
2023-02-11T11:19:15.864Z,10.07
2023-02-11T11:21:50.426Z,10.17
2023-02-11T11:24:33.469Z,10.20
2023-02-11T11:27:03.092Z,9.23
2023-02-11T11:29:39.398Z,9.63
2023-02-11T11:32:20.874Z,9.70
2023-02-11T11:34:55.580Z,10.17
2023-02-11T11:37:33.037Z,10.40
2023-02-11T11:40:11.031Z,10.70
2023-02-11T11:42:39.788Z,11.80
2023-02-11T11:45:27.012Z,10.27
2023-02-11T11:48:15.276Z,9.80
2023-02-11T11:50:50.112Z,10.37
2023-02-11T11:53:31.246Z,9.87
2023-02-11T11:56:18.503Z,12.00
2023-02-11T11:58:45.099Z,10.97
2023-02-11T12:01:47.837Z,12.27
2023-02-11T12:04:49.820Z,10.00
2023-02-11T12:07:45.695Z,10.40
2023-02-11T12:10:18.384Z,9.20
2023-02-11T12:12:54.023Z,10.07
2023-02-11T12:15:31.204Z,11.07
2023-02-11T12:18:15.580Z,10.47
2023-02-11T12:21:00.399Z,9.83
2023-02-11T12:23:54.544Z,10.03
2023-02-11T12:26:24.286Z,9.00
2023-02-11T12:29:53.236Z,9.97
2023-02-11T12:32:32.062Z,9.50
2023-02-11T12:35:26.695Z,10.27
2023-02-11T12:38:05.247Z,9.40
2023-02-11T12:40:53.224Z,9.93
2023-02-11T12:43:24.472Z,9.70
2023-02-11T12:46:16.006Z,8.00
2023-02-11T12:49:00.591Z,9.20
2023-02-11T12:51:57.956Z,9.37
2023-02-11T12:54:31.859Z,9.97
2023-02-11T12:57:07.393Z,9.63
2023-02-11T12:59:56.430Z,9.03
2023-02-11T13:02:44.460Z,10.77
2023-02-11T13:05:28.292Z,9.93
2023-02-11T13:08:04.389Z,10.20
2023-02-11T13:10:37.314Z,9.80
2023-02-11T13:13:22.137Z,8.93
2023-02-11T13:15:54.845Z,8.07
2023-02-11T13:18:45.642Z,8.33
2023-02-11T13:21:15.164Z,8.00
2023-02-11T13:24:09.659Z,9.17
2023-02-11T13:26:47.437Z,8.37
2023-02-11T13:29:29.659Z,8.60
2023-02-11T13:32:09.635Z,7.77
2023-02-11T13:34:42.166Z,9.00
2023-02-11T13:37:23.211Z,8.43
2023-02-11T13:39:58.421Z,8.07
2023-02-11T13:42:25.070Z,9.33
2023-02-11T13:44:52.055Z,8.90
2023-02-11T13:47:31.650Z,8.23
2023-02-11T13:50:00.255Z,8.37
2023-02-11T13:52:31.627Z,8.90
2023-02-11T13:55:06.358Z,9.00
2023-02-11T13:57:34.900Z,8.57
2023-02-11T14:00:26.838Z,7.40
2023-02-11T14:03:30.356Z,7.77
2023-02-11T14:06:27.933Z,8.23
2023-02-11T14:09:14.134Z,8.60
2023-02-11T14:11:42.689Z,8.87
2023-02-11T14:14:33.490Z,8.43
2023-02-11T14:17:03.220Z,8.93
2023-02-11T14:19:39.170Z,8.80
2023-02-11T14:22:13.333Z,8.80
2023-02-11T14:24:48.016Z,9.00
2023-02-11T14:27:27.119Z,10.20
2023-02-11T14:30:21.006Z,9.87
2023-02-11T14:33:00.330Z,9.10
2023-02-11T14:35:42.096Z,9.53
2023-02-11T14:38:31.682Z,8.93
2023-02-11T14:41:18.264Z,10.20
2023-02-11T14:43:58.734Z,10.67
2023-02-11T14:46:28.676Z,11.17
2023-02-11T14:48:59.794Z,10.80
2023-02-11T14:51:40.783Z,11.20
2023-02-11T14:54:22.713Z,10.90
2023-02-11T14:57:05.820Z,10.70
2023-02-11T14:59:32.773Z,11.80
2023-02-11T15:01:59.941Z,12.53
2023-02-11T15:04:33.265Z,13.13
2023-02-11T15:07:06.240Z,12.50
2023-02-11T15:09:46.209Z,11.97
2023-02-11T15:12:23.748Z,12.90
2023-02-11T15:14:54.097Z,14.80
2023-02-11T15:17:28.039Z,13.70
2023-02-11T15:19:57.884Z,13.60
2023-02-11T15:22:27.730Z,13.20
2023-02-11T15:25:17.067Z,14.10
2023-02-11T15:27:49.202Z,13.77
2023-02-11T15:30:21.734Z,12.50
2023-02-11T15:32:50.356Z,13.40
2023-02-11T15:35:18.341Z,13.47
2023-02-11T15:37:45.474Z,14.70
2023-02-11T15:40:19.050Z,12.90
2023-02-11T15:43:06.351Z,11.30
2023-02-11T15:45:38.498Z,14.00
2023-02-11T15:48:24.199Z,13.30
2023-02-11T15:50:58.645Z,13.60
2023-02-11T15:53:30.502Z,12.13
2023-02-11T15:56:07.827Z,14.90
2023-02-11T15:58:43.644Z,13.90
2023-02-11T16:01:10.949Z,14.50
2023-02-11T16:03:37.477Z,14.80
2023-02-11T16:06:17.308Z,13.33
2023-02-11T16:08:56.355Z,14.23
2023-02-11T16:11:31.017Z,15.10
2023-02-11T16:14:01.292Z,13.57
2023-02-11T16:16:33.960Z,12.47
2023-02-11T16:19:06.419Z,15.77
2023-02-11T16:21:38.966Z,18.50
2023-02-11T16:24:07.391Z,18.90
2023-02-11T16:26:39.140Z,15.20
2023-02-11T16:29:10.234Z,16.60
2023-02-11T16:31:41.110Z,16.40
2023-02-11T16:34:22.305Z,15.37
2023-02-11T16:36:50.036Z,16.23
2023-02-11T16:39:17.841Z,16.07
2023-02-11T16:41:44.394Z,15.20
2023-02-11T16:44:11.020Z,25.70
2023-02-11T16:46:37.851Z,21.20
2023-02-11T16:49:10.349Z,17.00
2023-02-11T16:51:41.609Z,17.50
2023-02-11T16:54:14.788Z,17.10
2023-02-11T16:56:41.566Z,18.07
2023-02-11T16:59:08.132Z,16.37
2023-02-11T17:01:35.753Z,17.00
2023-02-11T17:04:02.297Z,18.40
2023-02-11T17:06:28.753Z,19.17
2023-02-11T17:08:55.188Z,19.93
2023-02-11T17:11:21.592Z,21.37
2023-02-11T17:13:48.092Z,20.97
2023-02-11T17:16:23.391Z,21.33
2023-02-11T17:18:49.887Z,20.20
2023-02-11T17:21:16.800Z,22.03
2023-02-11T17:23:43.456Z,23.77
2023-02-11T17:26:09.844Z,20.83
2023-02-11T17:28:36.372Z,21.33
2023-02-11T17:31:07.320Z,18.77
2023-02-11T17:33:36.138Z,18.40
2023-02-11T17:36:09.880Z,18.27
2023-02-11T17:38:37.221Z,18.03
2023-02-11T17:41:04.855Z,18.00
2023-02-11T17:43:31.601Z,17.10
2023-02-11T17:45:58.120Z,14.57
2023-02-11T17:48:25.031Z,14.90
2023-02-11T17:50:51.558Z,17.30
2023-02-11T17:53:17.974Z,14.73
2023-02-11T17:55:44.480Z,13.30
2023-02-11T17:58:11.024Z,15.13
2023-02-11T18:00:37.474Z,14.90
2023-02-11T18:03:04.387Z,15.43
2023-02-11T18:05:35.784Z,14.13
2023-02-11T18:08:04.285Z,17.23
2023-02-11T18:10:31.688Z,16.70
2023-02-11T18:12:58.122Z,15.17
2023-02-11T18:15:24.610Z,13.30
2023-02-11T18:17:51.202Z,15.53
2023-02-11T18:20:17.871Z,14.53
2023-02-11T18:22:44.647Z,14.70
2023-02-11T18:25:14.968Z,16.57
2023-02-11T18:27:41.512Z,13.20
2023-02-11T18:30:13.997Z,15.23
2023-02-11T18:32:40.488Z,14.70
2023-02-11T18:35:14.780Z,14.03
2023-02-11T18:37:42.395Z,15.70
2023-02-11T18:40:10.433Z,16.47
2023-02-11T18:42:36.989Z,18.83
2023-02-11T18:45:05.158Z,17.60
2023-02-11T18:47:31.545Z,21.73
2023-02-11T18:49:57.964Z,22.70
2023-02-11T18:52:24.387Z,23.83
2023-02-11T18:54:52.241Z,18.93
2023-02-11T18:57:18.640Z,20.63
2023-02-11T18:59:45.309Z,18.50
2023-02-11T19:02:11.995Z,21.90
2023-02-11T19:04:38.516Z,19.10
2023-02-11T19:07:05.071Z,19.70
2023-02-11T19:09:31.696Z,19.33
2023-02-11T19:11:59.794Z,18.97
2023-02-11T19:14:31.623Z,19.70
2023-02-11T19:17:00.286Z,18.93
2023-02-11T19:19:31.576Z,18.07
2023-02-11T19:21:59.773Z,18.33
2023-02-11T19:24:28.072Z,18.50
2023-02-11T19:26:58.411Z,19.03
2023-02-11T19:29:25.428Z,17.07
2023-02-11T19:31:53.556Z,18.80
2023-02-11T19:34:21.265Z,20.63
2023-02-11T19:36:49.321Z,18.23
2023-02-11T19:39:16.385Z,17.67
2023-02-11T19:41:42.940Z,19.43
2023-02-11T19:44:09.501Z,16.90
2023-02-11T19:46:38.027Z,18.73
2023-02-11T19:49:05.067Z,18.90
2023-02-11T19:51:33.523Z,19.23
2023-02-11T19:54:00.664Z,18.70
2023-02-11T19:56:31.023Z,19.07
2023-02-11T19:58:57.539Z,19.90
2023-02-11T20:01:25.664Z,19.03
2023-02-11T20:03:53.846Z,18.30
2023-02-11T20:06:23.865Z,18.10
2023-02-11T20:08:58.235Z,18.73
2023-02-11T20:11:26.832Z,18.10
2023-02-11T20:13:53.533Z,18.30
2023-02-11T20:16:23.116Z,18.60
2023-02-11T20:18:50.865Z,17.73
2023-02-11T20:21:20.233Z,19.03
2023-02-11T20:23:47.578Z,19.17
2023-02-11T20:26:16.764Z,19.23
2023-02-11T20:28:43.400Z,17.60
2023-02-11T20:31:11.080Z,18.00
2023-02-11T20:33:38.733Z,17.80
2023-02-11T20:36:08.440Z,19.90
2023-02-11T20:38:35.758Z,19.87
2023-02-11T20:41:10.357Z,19.10
2023-02-11T20:43:38.107Z,16.60
2023-02-11T20:46:06.051Z,18.57
2023-02-11T20:48:33.204Z,18.57
2023-02-11T20:51:09.112Z,22.57
2023-02-11T20:53:40.419Z,19.10
2023-02-11T20:56:09.722Z,19.27
2023-02-11T20:58:36.495Z,18.73
2023-02-11T21:01:14.124Z,20.67
2023-02-11T21:03:43.696Z,21.17
2023-02-11T21:06:11.334Z,21.10
2023-02-11T21:08:37.860Z,20.90
2023-02-11T21:11:08.430Z,20.13
2023-02-11T21:13:36.213Z,17.80
2023-02-11T21:16:03.116Z,17.90
2023-02-11T21:18:29.637Z,16.97
2023-02-11T21:20:56.784Z,17.23
2023-02-11T21:23:23.799Z,17.27
2023-02-11T21:25:51.013Z,19.03
2023-02-11T21:28:17.489Z,17.53
2023-02-11T21:30:44.304Z,16.60
2023-02-11T21:33:10.768Z,18.00
2023-02-11T21:35:38.018Z,18.03
2023-02-11T21:38:04.795Z,16.90
2023-02-11T21:40:31.293Z,18.20
2023-02-11T21:42:58.275Z,17.30
2023-02-11T21:45:25.335Z,18.47
2023-02-11T21:47:52.338Z,17.93
2023-02-11T21:50:19.081Z,19.03
2023-02-11T21:52:46.043Z,18.03
2023-02-11T21:55:12.741Z,18.33
2023-02-11T21:57:39.249Z,19.60
2023-02-11T22:00:07.627Z,19.00
2023-02-11T22:02:37.121Z,18.90
2023-02-11T22:05:03.800Z,21.37
2023-02-11T22:07:30.332Z,23.37
2023-02-11T22:09:56.789Z,21.60
2023-02-11T22:12:23.237Z,18.27
2023-02-11T22:14:49.743Z,18.00
2023-02-11T22:17:16.261Z,16.97
2023-02-11T22:19:42.783Z,17.50
2023-02-11T22:22:09.399Z,17.93
2023-02-11T22:24:36.072Z,17.23
2023-02-11T22:27:02.989Z,16.13
2023-02-11T22:29:29.424Z,15.50
2023-02-11T22:31:55.856Z,15.60
2023-02-11T22:34:22.326Z,16.10
2023-02-11T22:36:48.762Z,15.57
2023-02-11T22:39:16.613Z,17.50
2023-02-11T22:41:44.609Z,16.27
2023-02-11T22:44:11.604Z,17.17
2023-02-11T22:46:38.992Z,17.90
2023-02-11T22:49:05.866Z,16.17
2023-02-11T22:51:32.371Z,15.50
2023-02-11T22:54:04.260Z,17.67
2023-02-11T22:56:32.723Z,16.30
2023-02-11T22:59:01.764Z,16.27
2023-02-11T23:01:29.725Z,15.80
2023-02-11T23:03:56.926Z,17.50
2023-02-11T23:06:23.344Z,15.53
2023-02-11T23:08:51.482Z,17.53
2023-02-11T23:11:20.633Z,15.63
2023-02-11T23:13:48.356Z,16.93
2023-02-11T23:16:18.261Z,16.90
2023-02-11T23:18:46.177Z,15.20
2023-02-11T23:21:18.892Z,16.77
2023-02-11T23:23:45.687Z,16.73
2023-02-11T23:26:15.237Z,16.50
2023-02-11T23:28:42.148Z,16.60
2023-02-11T23:31:22.237Z,14.70
2023-02-11T23:33:49.115Z,20.40
2023-02-11T23:36:16.560Z,18.57
2023-02-11T23:38:43.371Z,17.27
2023-02-11T23:41:10.201Z,17.73
2023-02-11T23:43:36.962Z,16.77
2023-02-11T23:46:04.141Z,18.70
2023-02-11T23:48:30.631Z,16.40
2023-02-11T23:50:57.112Z,17.70
2023-02-11T23:53:38.237Z,16.20
2023-02-11T23:56:10.055Z,16.33
2023-02-11T23:58:36.642Z,16.47
